createdAt,value
2019-03-30T00:00:42.756Z,10.32
2019-03-30T00:03:14.021Z,10.43
2019-03-30T00:05:45.717Z,10.13
2019-03-30T00:08:17.086Z,12.20
2019-03-30T00:10:53.131Z,10.31
2019-03-30T00:13:24.384Z,10.58
2019-03-30T00:15:55.758Z,11.50
2019-03-30T00:18:27.048Z,9.83
2019-03-30T00:20:58.308Z,10.68
2019-03-30T00:23:29.911Z,9.25
2019-03-30T00:26:01.222Z,10.30
2019-03-30T00:28:32.475Z,9.73
2019-03-30T00:31:03.791Z,8.83
2019-03-30T00:33:35.050Z,11.50
2019-03-30T00:36:06.383Z,9.13
2019-03-30T00:38:38.402Z,9.23
2019-03-30T00:41:09.673Z,8.80
2019-03-30T00:43:40.938Z,9.58
2019-03-30T00:46:12.544Z,9.80
2019-03-30T00:48:43.833Z,9.38
2019-03-30T00:51:15.073Z,8.73
2019-03-30T00:53:46.334Z,9.47
2019-03-30T00:56:17.919Z,8.85
2019-03-30T00:58:49.145Z,9.43
2019-03-30T01:01:20.563Z,9.33
2019-03-30T01:03:52.153Z,8.90
2019-03-30T01:06:23.450Z,10.75
2019-03-30T01:08:54.731Z,9.33
2019-03-30T01:11:25.995Z,9.43
2019-03-30T01:13:57.607Z,9.33
2019-03-30T01:16:29.291Z,9.48
2019-03-30T01:19:01.802Z,8.55
2019-03-30T01:21:33.057Z,8.68
2019-03-30T01:24:04.384Z,8.93
2019-03-30T01:26:35.667Z,10.28
2019-03-30T01:29:07.212Z,10.75
2019-03-30T01:31:38.493Z,9.95
2019-03-30T01:34:09.801Z,9.55
2019-03-30T01:36:41.242Z,10.97
2019-03-30T01:39:12.995Z,10.72
2019-03-30T01:41:44.264Z,9.93
2019-03-30T01:44:15.848Z,9.68
2019-03-30T01:46:47.420Z,10.25
2019-03-30T01:49:19.037Z,10.32
2019-03-30T01:51:50.329Z,10.25
2019-03-30T01:54:21.597Z,10.78
2019-03-30T01:56:52.843Z,10.10
2019-03-30T01:59:24.106Z,10.45
2019-03-30T02:01:55.374Z,10.78
2019-03-30T02:04:26.972Z,10.48
2019-03-30T02:06:58.272Z,10.65
2019-03-30T02:09:29.896Z,13.70
2019-03-30T02:12:01.163Z,9.73
2019-03-30T02:14:32.466Z,9.88
2019-03-30T02:17:03.730Z,11.75
2019-03-30T02:19:35.044Z,9.55
2019-03-30T02:22:07.478Z,11.55
2019-03-30T02:24:38.859Z,9.80
2019-03-30T02:27:10.548Z,9.73
2019-03-30T02:29:41.814Z,9.48
2019-03-30T02:32:13.373Z,9.48
2019-03-30T02:34:44.601Z,9.60
2019-03-30T02:37:15.934Z,10.30
2019-03-30T02:39:48.583Z,11.05
2019-03-30T02:42:20.409Z,10.88
2019-03-30T02:44:51.682Z,10.40
2019-03-30T02:47:22.954Z,10.38
2019-03-30T02:49:54.502Z,11.10
2019-03-30T02:52:26.097Z,10.68
2019-03-30T02:54:57.416Z,11.00
2019-03-30T02:57:29.131Z,11.12
2019-03-30T03:00:00.436Z,10.58
2019-03-30T03:02:31.719Z,10.43
2019-03-30T03:05:03.069Z,11.28
2019-03-30T03:07:34.978Z,10.95
2019-03-30T03:10:06.716Z,11.25
2019-03-30T03:12:38.276Z,11.25
2019-03-30T03:15:10.554Z,11.73
2019-03-30T03:17:41.879Z,11.85
2019-03-30T03:20:13.570Z,11.78
2019-03-30T03:22:45.561Z,13.30
2019-03-30T03:25:16.821Z,11.80
2019-03-30T03:27:48.087Z,13.93
2019-03-30T03:30:19.508Z,12.80
2019-03-30T03:32:51.112Z,11.83
2019-03-30T03:35:22.745Z,12.90
2019-03-30T03:37:54.055Z,13.53
2019-03-30T03:40:25.380Z,13.43
2019-03-30T03:42:56.652Z,12.93
2019-03-30T03:45:27.982Z,13.63
2019-03-30T03:47:59.384Z,13.40
2019-03-30T03:50:42.826Z,13.58
2019-03-30T03:53:15.760Z,13.80
2019-03-30T03:55:47.286Z,12.95
2019-03-30T03:58:19.010Z,12.53
2019-03-30T04:00:53.855Z,13.13
2019-03-30T04:03:26.644Z,15.48
2019-03-30T04:06:01.523Z,14.47
2019-03-30T04:08:32.927Z,14.83
2019-03-30T04:11:04.886Z,13.48
2019-03-30T04:13:38.433Z,16.10
2019-03-30T04:16:09.894Z,15.05
2019-03-30T04:18:41.162Z,13.72
2019-03-30T04:21:12.439Z,14.53
2019-03-30T04:23:44.016Z,16.45
2019-03-30T04:26:15.273Z,14.03
2019-03-30T04:28:46.551Z,12.95
2019-03-30T04:31:17.814Z,14.40
2019-03-30T04:33:49.405Z,13.72
2019-03-30T04:36:20.678Z,14.55
2019-03-30T04:38:52.374Z,14.05
2019-03-30T04:41:23.667Z,14.05
2019-03-30T04:43:54.907Z,14.20
2019-03-30T04:46:26.477Z,13.07
2019-03-30T04:48:57.784Z,13.10
2019-03-30T04:51:29.046Z,13.98
2019-03-30T04:54:00.949Z,15.25
2019-03-30T04:56:32.578Z,18.57
2019-03-30T04:59:03.864Z,16.70
2019-03-30T05:01:35.199Z,18.20
2019-03-30T05:04:07.509Z,15.43
2019-03-30T05:06:38.775Z,13.53
2019-03-30T05:09:10.038Z,16.93
2019-03-30T05:11:41.501Z,16.02
2019-03-30T05:14:13.060Z,20.32
2019-03-30T05:16:44.327Z,16.42
2019-03-30T05:19:15.617Z,18.77
2019-03-30T05:21:46.879Z,17.77
2019-03-30T05:24:18.149Z,15.88
2019-03-30T05:26:49.424Z,12.40
2019-03-30T05:29:20.717Z,12.47
2019-03-30T05:31:52.029Z,12.30
2019-03-30T05:34:23.345Z,16.20
2019-03-30T05:36:54.951Z,13.88
2019-03-30T05:39:27.469Z,14.23
2019-03-30T05:41:58.733Z,14.30
2019-03-30T05:44:30.013Z,13.18
2019-03-30T05:47:01.614Z,13.28
2019-03-30T05:49:33.189Z,13.65
2019-03-30T05:52:04.439Z,11.73
2019-03-30T05:54:35.710Z,11.30
2019-03-30T05:57:07.008Z,12.10
2019-03-30T05:59:38.582Z,12.68
2019-03-30T06:02:10.294Z,12.40
2019-03-30T06:04:41.622Z,11.63
2019-03-30T06:07:13.280Z,12.20
2019-03-30T06:09:44.850Z,11.78
2019-03-30T06:12:16.123Z,11.43
2019-03-30T06:14:47.387Z,12.83
2019-03-30T06:17:18.690Z,11.57
2019-03-30T06:19:49.973Z,11.80
2019-03-30T06:22:21.242Z,11.40
2019-03-30T06:24:52.526Z,11.35
2019-03-30T06:27:24.881Z,11.70
2019-03-30T06:30:15.862Z,12.30
2019-03-30T06:32:47.522Z,12.20
2019-03-30T06:35:19.412Z,12.18
2019-03-30T06:37:50.691Z,12.80
2019-03-30T06:40:22.111Z,13.03
2019-03-30T06:42:53.398Z,12.05
2019-03-30T06:45:24.786Z,12.90
2019-03-30T06:47:56.932Z,14.33
2019-03-30T06:50:28.243Z,14.77
2019-03-30T06:52:59.516Z,13.30
2019-03-30T06:55:30.842Z,13.60
2019-03-30T06:58:03.086Z,14.30
2019-03-30T07:00:35.466Z,12.90
2019-03-30T07:03:07.924Z,14.25
2019-03-30T07:05:44.307Z,13.83
2019-03-30T07:08:16.746Z,14.45
2019-03-30T07:10:48.407Z,14.13
2019-03-30T07:13:19.953Z,14.05
2019-03-30T07:15:52.442Z,18.92
2019-03-30T07:18:23.733Z,15.53
2019-03-30T07:20:55.289Z,17.48
2019-03-30T07:23:26.557Z,16.43
2019-03-30T07:25:58.250Z,20.97
2019-03-30T07:28:29.542Z,17.98
2019-03-30T07:31:02.284Z,13.90
2019-03-30T07:33:33.851Z,13.83
2019-03-30T07:36:06.438Z,13.95
2019-03-30T07:38:37.717Z,15.65
2019-03-30T07:41:08.991Z,14.97
2019-03-30T07:43:40.294Z,14.85
2019-03-30T07:46:12.030Z,13.68
2019-03-30T07:48:43.324Z,15.83
2019-03-30T07:51:14.638Z,14.40
2019-03-30T07:53:45.911Z,17.30
2019-03-30T07:56:17.182Z,14.98
2019-03-30T07:58:48.478Z,14.95
2019-03-30T08:01:19.845Z,15.78
2019-03-30T08:03:51.220Z,16.90
2019-03-30T08:06:22.490Z,15.60
2019-03-30T08:08:53.770Z,14.90
2019-03-30T08:11:32.624Z,15.36
2019-03-30T08:14:04.042Z,15.78
2019-03-30T08:16:35.907Z,16.32
2019-03-30T08:19:07.197Z,18.65
2019-03-30T08:21:38.501Z,18.87
2019-03-30T08:24:09.765Z,14.95
2019-03-30T08:26:41.039Z,16.95
2019-03-30T08:29:12.305Z,14.83
2019-03-30T08:31:43.552Z,15.53
2019-03-30T08:34:14.813Z,15.37
2019-03-30T08:36:46.102Z,13.73
2019-03-30T08:39:17.377Z,13.17
2019-03-30T08:41:48.669Z,18.53
2019-03-30T08:44:19.927Z,12.83
2019-03-30T08:46:51.190Z,12.80
2019-03-30T08:49:22.733Z,12.43
2019-03-30T08:51:53.987Z,13.05
2019-03-30T08:54:25.273Z,12.20
2019-03-30T08:56:56.833Z,12.10
2019-03-30T08:59:28.106Z,12.15
2019-03-30T09:01:59.648Z,12.83
2019-03-30T09:04:30.922Z,12.18
2019-03-30T09:07:02.223Z,12.30
2019-03-30T09:09:33.499Z,12.00
2019-03-30T09:12:05.185Z,13.18
2019-03-30T09:14:36.531Z,11.73
2019-03-30T09:17:08.159Z,11.80
2019-03-30T09:19:39.421Z,12.60
2019-03-30T09:22:10.676Z,13.78
2019-03-30T09:24:41.940Z,14.45
2019-03-30T09:27:13.212Z,12.10
2019-03-30T09:29:45.634Z,14.50
2019-03-30T09:32:16.910Z,12.88
2019-03-30T09:34:48.203Z,12.37
2019-03-30T09:37:19.493Z,12.25
2019-03-30T09:39:50.860Z,13.58
2019-03-30T09:42:22.100Z,12.40
2019-03-30T09:44:53.931Z,12.05
2019-03-30T09:47:26.153Z,11.70
2019-03-30T09:49:57.702Z,13.98
2019-03-30T09:52:29.312Z,12.33
2019-03-30T09:55:00.668Z,15.10
2019-03-30T09:57:33.239Z,14.03
2019-03-30T10:00:04.959Z,16.97
2019-03-30T10:02:38.224Z,15.10
2019-03-30T10:05:11.195Z,14.70
2019-03-30T10:07:42.919Z,16.20
2019-03-30T10:10:14.273Z,14.50
2019-03-30T10:12:45.611Z,15.95
2019-03-30T10:15:17.335Z,14.18
2019-03-30T10:17:48.853Z,15.98
2019-03-30T10:20:20.150Z,16.70
2019-03-30T10:22:51.740Z,14.68
2019-03-30T10:25:23.086Z,12.95
2019-03-30T10:27:54.703Z,14.87
2019-03-30T10:30:26.521Z,16.70
2019-03-30T10:32:57.841Z,15.93
2019-03-30T10:35:30.180Z,15.37
2019-03-30T10:38:01.462Z,12.90
2019-03-30T10:40:32.783Z,12.73
2019-03-30T10:43:04.493Z,14.63
2019-03-30T10:45:35.871Z,13.38
2019-03-30T10:48:07.143Z,17.23
2019-03-30T10:50:38.413Z,16.55
2019-03-30T10:53:10.056Z,12.78
2019-03-30T10:55:41.328Z,9.83
2019-03-30T10:58:12.614Z,14.87
2019-03-30T11:00:43.964Z,11.80
2019-03-30T11:03:15.749Z,11.18
2019-03-30T11:05:54.276Z,12.76
2019-03-30T11:08:25.548Z,10.87
2019-03-30T11:10:56.811Z,12.20
2019-03-30T11:13:28.430Z,10.72
2019-03-30T11:15:59.814Z,19.27
2019-03-30T11:18:31.155Z,10.43
2019-03-30T11:21:02.495Z,10.30
2019-03-30T11:23:34.009Z,10.53
2019-03-30T11:26:05.373Z,11.22
2019-03-30T11:28:36.719Z,13.00
2019-03-30T11:31:08.069Z,12.70
2019-03-30T11:33:39.366Z,10.50
2019-03-30T11:36:10.774Z,14.47
2019-03-30T11:38:42.070Z,10.48
2019-03-30T11:41:13.344Z,9.70
2019-03-30T11:43:44.703Z,9.20
2019-03-30T11:46:16.324Z,9.25
2019-03-30T11:48:47.624Z,8.85
2019-03-30T11:51:20.043Z,8.55
2019-03-30T11:53:51.325Z,10.32
2019-03-30T11:56:22.610Z,9.68
2019-03-30T11:58:54.217Z,8.37
2019-03-30T12:01:25.585Z,10.23
2019-03-30T12:03:56.818Z,13.65
2019-03-30T12:06:28.345Z,9.38
2019-03-30T12:08:59.766Z,8.93
2019-03-30T12:11:31.078Z,11.08
2019-03-30T12:14:13.504Z,13.60
2019-03-30T12:16:44.882Z,8.80
2019-03-30T12:19:16.145Z,11.10
2019-03-30T12:21:47.509Z,9.95
2019-03-30T12:24:19.182Z,9.13
2019-03-30T12:26:50.477Z,8.27
2019-03-30T12:29:21.817Z,7.85
2019-03-30T12:32:12.609Z,11.08
2019-03-30T12:34:43.904Z,7.05
2019-03-30T12:37:15.328Z,8.68
2019-03-30T12:39:47.678Z,8.83
2019-03-30T12:42:19.417Z,8.20
2019-03-30T12:44:50.716Z,7.67
2019-03-30T12:47:22.118Z,12.13
2019-03-30T12:49:53.988Z,35.17
2019-03-30T12:52:26.555Z,109.72
2019-03-30T12:54:58.006Z,63.57
2019-03-30T12:57:29.305Z,20.25
2019-03-30T13:00:00.766Z,23.25
2019-03-30T13:02:32.105Z,18.75
2019-03-30T13:05:03.606Z,12.37
2019-03-30T13:07:34.926Z,10.72
2019-03-30T13:10:07.438Z,10.38
2019-03-30T13:12:38.777Z,15.30
2019-03-30T13:15:10.321Z,9.57
2019-03-30T13:17:42.095Z,8.90
2019-03-30T13:20:13.763Z,11.93
2019-03-30T13:22:45.194Z,14.63
2019-03-30T13:25:16.582Z,17.50
2019-03-30T13:27:47.983Z,13.13
2019-03-30T13:30:19.444Z,14.75
2019-03-30T13:32:53.275Z,9.30
2019-03-30T13:35:24.018Z,10.43
2019-03-30T13:37:55.777Z,10.78
2019-03-30T13:40:27.070Z,11.10
2019-03-30T13:42:58.606Z,9.15
2019-03-30T13:45:30.030Z,10.13
2019-03-30T13:48:01.343Z,8.83
2019-03-30T13:50:32.717Z,11.93
2019-03-30T13:53:04.132Z,25.70
2019-03-30T13:55:35.591Z,11.65
2019-03-30T13:58:06.985Z,12.65
2019-03-30T14:00:38.322Z,9.73
2019-03-30T14:03:09.664Z,14.53
2019-03-30T14:05:41.065Z,12.50
2019-03-30T14:08:12.347Z,11.33
2019-03-30T14:10:45.186Z,12.60
2019-03-30T14:13:16.966Z,10.88
2019-03-30T14:15:48.352Z,8.28
2019-03-30T14:18:19.666Z,6.85
2019-03-30T14:20:50.930Z,9.00
2019-03-30T14:23:22.215Z,8.90
2019-03-30T14:25:53.487Z,10.90
2019-03-30T14:28:24.885Z,12.20
2019-03-30T14:30:56.282Z,14.00
2019-03-30T14:33:27.624Z,15.80
2019-03-30T14:35:59.139Z,11.70
2019-03-30T14:38:30.467Z,10.58
2019-03-30T14:41:03.756Z,10.23
2019-03-30T14:43:35.025Z,13.43
2019-03-30T14:46:06.294Z,7.15
2019-03-30T14:48:37.613Z,7.42
2019-03-30T14:51:09.396Z,10.08
2019-03-30T14:53:40.682Z,10.38
2019-03-30T14:56:11.983Z,11.75
2019-03-30T14:58:43.643Z,9.65
2019-03-30T15:01:15.109Z,12.82
2019-03-30T15:03:46.408Z,7.58
2019-03-30T15:06:17.775Z,6.83
2019-03-30T15:08:49.401Z,10.05
2019-03-30T15:11:20.666Z,9.23
2019-03-30T15:13:52.139Z,9.90
2019-03-30T15:16:23.451Z,7.28
2019-03-30T15:18:54.746Z,10.25
